WetterOnline ( https://www.wetteronline.ch )

Wetter aktuell Weiden

Aktuelles Wetter: Weiden (439m)

6-stündlich | Neueste Meldungen
Ortszeit Temperatur Wetter
Mi, 12.08. 20:00 27.2° C fast wolkenlos
Mi, 12.08. 14:00 29.5° C fast wolkenlos
Mi, 12.08. 8:00 18.5° C wolkenlos
Mi, 12.08. 2:00 19.0° C wolkig
Di, 11.08. 20:00 23.9° C bedeckt
Di, 11.08. 14:00 28.2° C wolkig
Di, 11.08. 8:00 19.3° C leicht bewölkt
Di, 11.08. 2:00 19.2° C leicht bewölkt
Ortszeit Temperatur Wetter
Do, 13.08. 1:30 20.4° C wolkig
Do, 13.08. 1:20 20.4° C wolkig
Do, 13.08. 1:10 20.4° C wolkig
Do, 13.08. 1:00 20.5° C wolkig
Do, 13.08. 0:50 20.5° C wolkig
Do, 13.08. 0:40 20.7° C wolkig
Do, 13.08. 0:30 20.8° C wolkig
Do, 13.08. 0:00 22.1° C wolkig
Mi, 12.08. 23:30 22.0° C wolkig
Mi, 12.08. 23:00 23.0° C wolkenlos
Mi, 12.08. 22:30 23.5° C wolkenlos
Ortszeit Relative Feuchte Sichtweite
Mi, 12.08. 20:00 40% 45 km
Mi, 12.08. 14:00 32% 19 km
Mi, 12.08. 8:00 75% 22 km
Mi, 12.08. 2:00 72% 28 km
Di, 11.08. 20:00 58% 26 km
Di, 11.08. 14:00 42% 40 km
Di, 11.08. 8:00 71% 26 km
Di, 11.08. 2:00 75% 35 km
Ortszeit Relative Feuchte Sichtweite
Do, 13.08. 1:30 65% 40 km
Do, 13.08. 1:20 65% -
Do, 13.08. 1:10 65% -
Do, 13.08. 1:00 65% 40 km
Do, 13.08. 0:50 65% -
Do, 13.08. 0:40 64% -
Do, 13.08. 0:30 63% 40 km
Do, 13.08. 0:00 57% 35 km
Mi, 12.08. 23:30 57% 40 km
Mi, 12.08. 23:00 53% 50 km
Mi, 12.08. 22:30 51% 45 km
Ortszeit Niederschlagsmenge Niederschlagsart
Mi, 12.08. 20:00 0.0 l/m2 in 12 Std. -
Mi, 12.08. 14:00 0.0 l/m2 in 6 Std. -
Mi, 12.08. 8:00 0.0 l/m2 in 12 Std. -
Mi, 12.08. 2:00 0.0 l/m2 in 6 Std. -
Di, 11.08. 20:00 0.0 l/m2 in 12 Std. -
Di, 11.08. 14:00 0.0 l/m2 in 6 Std. -
Di, 11.08. 8:00 0.0 l/m2 in 12 Std. -
Di, 11.08. 2:00 0.0 l/m2 in 6 Std. -
Ortszeit Niederschlagsmenge Niederschlagsart
Do, 13.08. 1:30 0.0 l/m2 in 1 Std. -
Do, 13.08. 1:20 keine Meldung -
Do, 13.08. 1:10 keine Meldung -
Do, 13.08. 1:00 0.0 l/m2 in 1 Std. -
Do, 13.08. 0:50 keine Meldung -
Do, 13.08. 0:40 keine Meldung -
Do, 13.08. 0:30 0.0 l/m2 in 1 Std. -
Do, 13.08. 0:00 0.0 l/m2 in 1 Std. -
Mi, 12.08. 23:30 0.0 l/m2 in 1 Std. -
Mi, 12.08. 23:00 0.0 l/m2 in 1 Std. -
Mi, 12.08. 22:30 0.0 l/m2 in 1 Std. -
Ortszeit Stärke Spitze Richtung
km/h Bft. km/h Grad Sektor
Mi, 12.08. 20:00 7 2 48 90° O
Mi, 12.08. 14:00 14 3 36 80° O
Mi, 12.08. 8:00 4 1 7 310° NW
Mi, 12.08. 2:00 4 1 25 260° W
Di, 11.08. 20:00 22 4 43 70° O
Di, 11.08. 14:00 17 3 39 100° O
Di, 11.08. 8:00 0 0 11 - -
Di, 11.08. 2:00 4 1 36 290° W
Ortszeit Stärke Spitze Richtung
km/h Bft. km/h Grad Sektor
Do, 13.08. 1:30 4 1 7 300° NW
Do, 13.08. 1:20 4 1 - 300° NW
Do, 13.08. 1:10 4 1 - 260° W
Do, 13.08. 1:00 4 1 11 230° SW
Do, 13.08. 0:50 4 1 - 230° SW
Do, 13.08. 0:40 4 1 - 280° W
Do, 13.08. 0:30 4 1 11 310° NW
Do, 13.08. 0:00 4 1 11 120° SO
Mi, 12.08. 23:30 4 1 4 260° W
Mi, 12.08. 23:00 4 1 11 20° N
Mi, 12.08. 22:30 4 1 11 30° NO
Ortszeit Untergrenze Bedeckung Gattung
total tief tief mittel hoch
Mi, 12.08. 20:00 9000 m 1/8 0/8 - - -
Mi, 12.08. 14:00 1800 m 1/8 1/8 - - -
Mi, 12.08. 8:00 - 0/8 0/8 - - -
Mi, 12.08. 2:00 8100 m 8/8 0/8 - - -
Di, 11.08. 20:00 6000 m 8/8 8/8 - - -
Di, 11.08. 14:00 4500 m 5/8 5/8 - - -
Di, 11.08. 8:00 10500 m 3/8 0/8 - - -
Di, 11.08. 2:00 2700 m 5/8 3/8 - - -
Ortszeit Bedeckungsgrad in Achtel und Wolkenuntergrenze
Do, 13.08. 1:30 8(9000m) 8(9000m)
Do, 13.08. 1:20 8(9000m) 8(9000m)
Do, 13.08. 1:10 8(9000m) 8(9000m)
Do, 13.08. 1:00 8(9000m) 8(10500m)
Do, 13.08. 0:50 8(9000m) 8(10500m)
Do, 13.08. 0:40 8(9000m) 8(10500m)
Do, 13.08. 0:30 8(9000m) 8(10500m)
Do, 13.08. 0:00 8(9000m) 8(10500m)
Mi, 12.08. 23:30 6(10500m) 7(10500m)
Mi, 12.08. 23:00 2(10500m) 2(10500m)
Mi, 12.08. 22:30 keine Wolken
Ortszeit Luftdruck NN (hPa) Tendenz (hPa in 3 Std.)
Mi, 12.08. 20:00 1014 - 0,8
Mi, 12.08. 14:00 1016 - 0,4
Mi, 12.08. 8:00 1018 + 0,6
Mi, 12.08. 2:00 1018 0,0
Di, 11.08. 20:00 1016 + 0,4
Di, 11.08. 14:00 1016 - 0,4
Di, 11.08. 8:00 1017 + 0,5
Di, 11.08. 2:00 1017 + 0,1
Ortszeit Luftdruck NN (hPa) Tendenz (hPa in 3 Std.)
Do, 13.08. 1:30 1015 - 0,4
Do, 13.08. 1:20 1015 keine Meldung
Do, 13.08. 1:10 1015 keine Meldung
Do, 13.08. 1:00 1015 - 0,4
Do, 13.08. 0:50 1015 keine Meldung
Do, 13.08. 0:40 1015 keine Meldung
Do, 13.08. 0:30 1015 0,0
Do, 13.08. 0:00 1015 + 0,1
Mi, 12.08. 23:30 1015 + 0,5
Mi, 12.08. 23:00 1015 + 0,4
Mi, 12.08. 22:30 1015 + 0,6
Ortszeit Schneehöhe (cm)
Mi, 12.08. 20:00 -
Mi, 12.08. 14:00 -
Mi, 12.08. 8:00 -
Mi, 12.08. 2:00 -
Di, 11.08. 20:00 -
Di, 11.08. 14:00 -
Di, 11.08. 8:00 -
Di, 11.08. 2:00 -
Ortszeit Schneehöhe (cm)
Do, 13.08. 1:30 -
Do, 13.08. 1:20 -
Do, 13.08. 1:10 -
Do, 13.08. 1:00 -
Do, 13.08. 0:50 -
Do, 13.08. 0:40 -
Do, 13.08. 0:30 -
Do, 13.08. 0:00 -
Mi, 12.08. 23:30 -
Mi, 12.08. 23:00 -
Mi, 12.08. 22:30 -
Link zu dieser Seite / Seite empfehlen

Das Wetter in ...